Time;durP1;ratioP1;P1;durP2;ratioP2;P2;SDS_P1;SDS_P2;PMS_P1;PMS_P2;Temp;Humidity;BMP_temperature;BMP_pressure;BME280_temperature;BME280_humidity;BME280_pressure;Samples;Min_cycle;Max_cycle;Signal;HPM_P1;HPM_P2
2022/06/01 00:01:32;;;;;;;13.40;12.03;;;10.90;99.90;;;;;;5053461;28;20178;-76
2022/06/01 00:03:57;;;;;;;13.80;12.40;;;10.90;99.90;;;;;;5052268;28;20175;-76
2022/06/01 00:06:23;;;;;;;13.00;11.60;;;10.90;99.90;;;;;;5052153;28;20171;-77
2022/06/01 00:08:48;;;;;;;12.93;11.63;;;10.90;99.90;;;;;;5051578;28;20242;-77
2022/06/01 00:11:15;;;;;;;13.10;11.73;;;10.90;99.90;;;;;;5051969;28;20576;-77
2022/06/01 00:13:42;;;;;;;14.03;11.10;;;10.90;99.90;;;;;;5051938;28;20282;-76
2022/06/01 00:16:08;;;;;;;12.23;10.43;;;10.90;99.90;;;;;;5053241;28;20168;-76
2022/06/01 00:18:35;;;;;;;12.47;11.17;;;10.90;99.90;;;;;;5053154;28;20175;-76
2022/06/01 00:21:01;;;;;;;14.47;11.90;;;10.90;99.90;;;;;;5051861;28;20186;-76
2022/06/01 00:23:26;;;;;;;11.87;10.67;;;10.90;99.90;;;;;;5052975;28;20203;-77
2022/06/01 00:25:52;;;;;;;11.97;10.60;;;10.80;99.90;;;;;;5053155;28;20200;-77
2022/06/01 00:28:18;;;;;;;12.07;10.63;;;10.80;99.90;;;;;;5053026;28;20175;-77
2022/06/01 00:30:44;;;;;;;11.87;10.27;;;10.70;99.90;;;;;;5052963;28;20274;-76
2022/06/01 00:33:11;;;;;;;14.53;10.90;;;10.70;99.90;;;;;;5052873;28;20257;-77
2022/06/01 00:35:37;;;;;;;14.30;12.60;;;10.70;99.90;;;;;;5052955;28;20171;-76
2022/06/01 00:38:03;;;;;;;14.90;13.30;;;10.70;99.90;;;;;;5051700;28;20255;-77
2022/06/01 00:40:29;;;;;;;14.27;12.73;;;10.70;99.90;;;;;;5051673;28;20265;-76
2022/06/01 00:42:58;;;;;;;13.83;12.37;;;10.60;99.90;;;;;;5051521;28;20207;-76
2022/06/01 00:45:26;;;;;;;15.50;13.37;;;10.60;99.90;;;;;;5052873;28;20171;-77
2022/06/01 00:47:52;;;;;;;15.40;13.80;;;10.50;99.90;;;;;;5051566;28;20172;-76
2022/06/01 00:50:25;;;;;;;16.60;13.77;;;10.50;99.90;;;;;;5052712;28;20245;-76
2022/06/01 00:53:06;;;;;;;15.37;13.30;;;10.50;99.90;;;;;;5053053;28;20222;-76
2022/06/01 00:55:41;;;;;;;15.30;13.70;;;10.40;99.90;;;;;;5052799;28;20186;-77
2022/06/01 00:58:18;;;;;;;17.37;14.33;;;10.40;99.90;;;;;;5052664;28;20243;-77
2022/06/01 01:00:46;;;;;;;16.47;14.63;;;10.30;99.90;;;;;;5053045;28;20163;-76
2022/06/01 01:03:15;;;;;;;17.57;14.47;;;10.30;99.90;;;;;;5051379;28;20281;-76
2022/06/01 01:05:45;;;;;;;16.90;15.10;;;10.30;99.90;;;;;;5051331;28;20596;-76
2022/06/01 01:08:12;;;;;;;22.27;16.30;;;10.30;99.90;;;;;;5053049;28;20159;-76
2022/06/01 01:10:38;;;;;;;15.57;13.90;;;10.20;99.90;;;;;;5052600;28;20188;-77
2022/06/01 01:13:08;;;;;;;17.87;14.60;;;10.20;99.90;;;;;;5052874;28;20202;-77
2022/06/01 01:15:40;;;;;;;18.10;15.40;;;10.20;99.90;;;;;;5051336;28;20259;-77
2022/06/01 01:18:17;;;;;;;16.70;15.00;;;10.10;99.90;;;;;;5051303;28;20167;-76
2022/06/01 01:21:22;;;;;;;17.63;15.73;;;10.10;99.90;;;;;;5054079;28;20171;-75
2022/06/01 01:24:18;;;;;;;16.87;15.13;;;10.10;99.90;;;;;;5054895;28;20226;-77
2022/06/01 01:26:48;;;;;;;18.70;16.07;;;10.10;99.90;;;;;;5055134;28;20179;-75
2022/06/01 01:29:15;;;;;;;19.77;17.23;;;10.10;99.90;;;;;;5056723;28;20222;-76
2022/06/01 01:31:43;;;;;;;18.70;16.63;;;10.10;99.90;;;;;;5054971;28;20732;-76
2022/06/01 01:34:09;;;;;;;19.07;15.53;;;10.00;99.90;;;;;;5056410;28;20164;-77
2022/06/01 01:36:41;;;;;;;18.13;15.63;;;10.00;99.90;;;;;;5055201;28;20199;-76
2022/06/01 01:39:10;;;;;;;18.83;14.60;;;10.00;99.90;;;;;;5054956;28;20226;-76
2022/06/01 01:41:41;;;;;;;13.97;12.33;;;9.90;99.90;;;;;;5054781;28;20175;-76
2022/06/01 01:44:25;;;;;;;15.63;13.93;;;9.90;99.90;;;;;;5056144;28;20164;-77
2022/06/01 01:46:51;;;;;;;15.70;14.00;;;9.80;99.90;;;;;;5055441;28;20179;-77
2022/06/01 01:49:23;;;;;;;16.87;14.20;;;9.80;99.90;;;;;;5056292;28;20176;-77
2022/06/01 01:51:53;;;;;;;17.57;15.00;;;9.80;99.90;;;;;;5054703;28;20207;-77
2022/06/01 01:54:49;;;;;;;19.83;14.23;;;9.80;99.90;;;;;;5055950;28;20155;-76
2022/06/01 01:57:24;;;;;;;18.43;14.00;;;9.70;99.90;;;;;;5053899;28;20560;-77
2022/06/01 02:00:07;;;;;;;17.40;15.50;;;9.60;99.90;;;;;;5054788;28;20159;-77
2022/06/01 02:02:42;;;;;;;17.40;15.50;;;9.60;99.90;;;;;;5054999;28;20245;-77
2022/06/01 02:08:29;;;;;;;17.97;14.27;;;9.60;99.90;;;;;;5036350;28;20636;-77
2022/06/01 02:14:01;;;;;;;16.23;14.47;;;9.60;99.90;;;;;;5054507;28;20667;-77
2022/06/01 02:16:30;;;;;;;15.40;13.77;;;9.50;99.90;;;;;;5076119;28;20624;-77
2022/06/01 02:19:00;;;;;;;18.53;14.63;;;9.50;99.90;;;;;;5074523;28;20641;-77
2022/06/01 02:21:27;;;;;;;17.87;13.70;;;9.40;99.90;;;;;;5067773;28;20186;-77
2022/06/01 02:23:55;;;;;;;15.77;13.83;;;9.40;99.90;;;;;;5054112;28;20270;-77
2022/06/01 02:26:21;;;;;;;13.57;12.10;;;9.40;99.90;;;;;;5055546;28;20546;-78
2022/06/01 02:28:49;;;;;;;15.77;12.80;;;9.30;99.90;;;;;;5055295;28;20661;-75
2022/06/01 02:31:17;;;;;;;12.87;11.43;;;9.30;99.90;;;;;;5052530;28;20207;-77
2022/06/01 02:33:46;;;;;;;17.17;13.80;;;9.20;99.90;;;;;;5053691;28;20196;-75
2022/06/01 02:36:15;;;;;;;15.17;12.77;;;9.20;99.90;;;;;;5055097;28;20590;-76
2022/06/01 02:38:47;;;;;;;15.53;12.33;;;9.20;99.90;;;;;;5053810;28;20725;-76
2022/06/01 02:43:59;;;;;;;14.97;13.17;;;9.10;99.90;;;;;;5055561;28;20167;-77
2022/06/01 02:46:25;;;;;;;20.40;13.13;;;9.10;99.90;;;;;;5054932;28;20649;-77
2022/06/01 02:48:50;;;;;;;15.43;12.50;;;9.10;99.90;;;;;;5055013;28;20176;-76
2022/06/01 02:51:20;;;;;;;14.93;12.97;;;9.10;99.90;;;;;;5052519;28;20697;-77
2022/06/01 02:53:46;;;;;;;13.43;11.97;;;9.00;99.90;;;;;;5056176;28;20584;-76
2022/06/01 02:56:13;;;;;;;13.90;12.13;;;8.90;99.90;;;;;;5057175;28;20174;-77
2022/06/01 02:58:39;;;;;;;16.60;12.57;;;8.90;99.90;;;;;;5054887;28;20175;-76
2022/06/01 03:01:05;;;;;;;15.37;12.23;;;8.90;99.90;;;;;;5052450;28;20175;-76
2022/06/01 03:03:30;;;;;;;14.40;12.83;;;8.90;99.90;;;;;;5054658;28;20196;-75
2022/06/01 03:05:56;;;;;;;14.03;11.50;;;8.90;99.90;;;;;;5053338;28;20175;-76
2022/06/01 03:08:22;;;;;;;14.13;12.43;;;8.90;99.90;;;;;;5054684;28;20175;-76
2022/06/01 03:10:48;;;;;;;17.80;12.20;;;8.90;99.90;;;;;;5054432;28;20192;-76
2022/06/01 03:13:14;;;;;;;15.57;11.63;;;8.80;99.90;;;;;;5071120;28;20199;-76
2022/06/01 03:15:41;;;;;;;13.57;12.17;;;8.80;99.90;;;;;;5074923;28;20175;-76
2022/06/01 03:18:06;;;;;;;14.20;12.70;;;8.80;99.90;;;;;;5074391;28;20201;-76
2022/06/01 03:20:34;;;;;;;14.73;11.83;;;8.80;99.90;;;;;;5074302;28;20206;-76
2022/06/01 03:23:00;;;;;;;13.33;11.97;;;8.80;99.90;;;;;;5056587;28;20306;-76
2022/06/01 03:25:28;;;;;;;14.13;12.20;;;8.80;99.90;;;;;;5055058;28;20217;-76
2022/06/01 03:27:57;;;;;;;16.50;12.60;;;8.80;99.90;;;;;;5072860;28;20229;-76
2022/06/01 03:30:23;;;;;;;14.83;11.40;;;8.70;99.90;;;;;;5074066;28;20191;-76
2022/06/01 03:32:49;;;;;;;12.80;11.17;;;8.70;99.90;;;;;;5072650;28;20225;-75
2022/06/01 03:35:18;;;;;;;16.27;11.70;;;8.70;99.90;;;;;;5070943;28;20167;-77
2022/06/01 03:37:43;;;;;;;13.30;11.87;;;8.70;99.90;;;;;;5053906;28;20168;-75
2022/06/01 03:40:10;;;;;;;14.47;12.30;;;8.60;99.90;;;;;;5054397;28;20229;-76
2022/06/01 03:42:36;;;;;;;14.70;12.03;;;8.60;99.90;;;;;;5053734;28;20677;-76
2022/06/01 03:47:46;;;;;;;13.37;11.97;;;8.60;99.90;;;;;;5034391;28;20199;-77
2022/06/01 03:50:12;;;;;;;14.33;12.17;;;8.70;99.90;;;;;;5032401;28;20678;-76
2022/06/01 03:52:38;;;;;;;15.90;12.57;;;8.70;99.90;;;;;;5032435;28;20697;-76
2022/06/01 03:55:05;;;;;;;14.70;11.97;;;8.60;99.90;;;;;;5032480;28;20204;-76
2022/06/01 03:57:30;;;;;;;15.27;13.13;;;8.70;99.90;;;;;;5053116;28;20563;-76
2022/06/01 03:59:56;;;;;;;13.20;11.27;;;8.70;99.90;;;;;;5053638;28;20171;-76
2022/06/01 04:02:21;;;;;;;12.47;11.17;;;8.70;99.90;;;;;;5053752;28;20196;-75
2022/06/01 04:04:47;;;;;;;14.33;12.07;;;8.80;99.90;;;;;;5053416;28;20179;-76
2022/06/01 04:07:12;;;;;;;13.77;11.83;;;8.80;99.90;;;;;;5051407;28;20171;-76
2022/06/01 04:09:38;;;;;;;12.20;10.90;;;8.80;99.90;;;;;;5053416;28;20176;-77
2022/06/01 04:12:03;;;;;;;15.07;10.93;;;8.80;99.90;;;;;;5053463;28;20215;-76
2022/06/01 04:14:29;;;;;;;15.57;11.13;;;8.80;99.90;;;;;;5053603;28;20177;-76
2022/06/01 04:16:54;;;;;;;13.47;11.23;;;8.90;99.90;;;;;;5065656;28;20218;-76
2022/06/01 04:19:20;;;;;;;14.63;11.03;;;8.90;99.90;;;;;;5073161;28;20619;-76
2022/06/01 04:21:49;;;;;;;12.03;10.47;;;8.90;99.90;;;;;;5073169;28;20210;-76
2022/06/01 04:24:19;;;;;;;12.17;10.60;;;8.90;99.90;;;;;;5071975;28;20186;-76
2022/06/01 04:26:45;;;;;;;12.57;10.60;;;8.90;99.90;;;;;;5058929;28;20251;-76
2022/06/01 04:29:11;;;;;;;13.20;11.80;;;8.90;99.90;;;;;;5053048;28;20174;-76
2022/06/01 04:31:37;;;;;;;13.03;11.03;;;8.90;99.90;;;;;;5052263;28;20203;-75
2022/06/01 04:34:03;;;;;;;14.37;11.07;;;8.90;99.90;;;;;;5051729;28;20186;-75
2022/06/01 04:36:29;;;;;;;14.90;10.77;;;8.90;99.90;;;;;;5052043;28;20176;-76
2022/06/01 04:38:54;;;;;;;13.47;12.00;;;8.90;99.90;;;;;;5053058;28;20543;-77
2022/06/01 04:41:20;;;;;;;15.20;11.93;;;9.00;99.90;;;;;;5053569;28;20263;-77
2022/06/01 04:43:45;;;;;;;14.23;10.93;;;9.00;99.90;;;;;;5051510;28;20605;-75
2022/06/01 04:46:11;;;;;;;13.47;11.60;;;9.00;99.90;;;;;;5050816;28;20180;-76
2022/06/01 04:48:36;;;;;;;17.37;11.80;;;9.00;99.90;;;;;;5052910;28;20180;-76
2022/06/01 04:51:03;;;;;;;15.57;11.77;;;9.00;99.90;;;;;;5051510;28;20577;-76
2022/06/01 04:53:29;;;;;;;14.33;11.80;;;9.10;99.90;;;;;;5051815;28;20715;-76
2022/06/01 04:55:55;;;;;;;14.27;11.10;;;9.10;99.90;;;;;;5056368;28;20262;-76
2022/06/01 04:58:22;;;;;;;14.10;11.17;;;9.10;99.90;;;;;;5058108;28;20181;-76
2022/06/01 05:00:47;;;;;;;14.70;11.17;;;9.10;99.90;;;;;;5059344;28;20167;-76
2022/06/01 05:03:13;;;;;;;13.60;11.63;;;9.10;99.90;;;;;;5059456;28;20567;-76
2022/06/01 05:05:39;;;;;;;14.43;11.27;;;9.20;99.90;;;;;;5059260;28;20168;-76
2022/06/01 05:08:06;;;;;;;16.73;12.27;;;9.20;99.90;;;;;;5059356;28;20262;-79
2022/06/01 05:10:33;;;;;;;13.93;12.40;;;9.30;99.90;;;;;;5057890;28;20205;-76
2022/06/01 05:12:58;;;;;;;18.10;12.73;;;9.30;99.90;;;;;;5058033;28;20195;-75
2022/06/01 05:15:24;;;;;;;18.20;12.27;;;9.40;99.90;;;;;;5056922;28;20694;-76
2022/06/01 05:17:49;;;;;;;15.97;12.17;;;9.40;99.90;;;;;;5076736;28;20182;-76
2022/06/01 05:20:15;;;;;;;18.57;13.20;;;9.40;99.90;;;;;;5079202;28;20182;-77
2022/06/01 05:22:41;;;;;;;17.70;12.67;;;9.50;99.90;;;;;;5089719;22;20590;-75
2022/06/01 05:25:08;;;;;;;19.37;13.90;;;9.60;99.90;;;;;;5057576;28;20519;-74
2022/06/01 05:27:34;;;;;;;14.73;13.20;;;9.60;99.90;;;;;;5059141;28;20178;-73
2022/06/01 05:30:00;;;;;;;17.20;13.40;;;9.70;99.90;;;;;;5057679;28;20555;-74
2022/06/01 05:32:26;;;;;;;16.73;13.13;;;9.70;99.90;;;;;;5058621;28;20211;-74
2022/06/01 05:34:52;;;;;;;14.13;12.13;;;9.70;99.90;;;;;;5059194;28;20179;-73
2022/06/01 05:37:17;;;;;;;18.43;13.63;;;9.80;99.90;;;;;;5059155;28;20175;-73
2022/06/01 05:39:43;;;;;;;19.90;14.07;;;9.80;99.90;;;;;;5059154;28;20591;-73
2022/06/01 05:42:08;;;;;;;17.17;12.87;;;9.90;99.90;;;;;;5059123;28;20645;-74
2022/06/01 05:44:34;;;;;;;15.93;13.53;;;9.90;99.90;;;;;;5059108;28;20225;-73
2022/06/01 05:47:01;;;;;;;17.23;13.37;;;10.00;99.90;;;;;;5057974;28;20180;-73
2022/06/01 05:49:27;;;;;;;17.53;13.83;;;10.00;99.90;;;;;;5059035;28;20175;-73
2022/06/01 05:51:53;;;;;;;17.80;14.20;;;10.00;99.90;;;;;;5057677;28;20675;-73
2022/06/01 05:54:19;;;;;;;16.60;13.30;;;10.10;99.90;;;;;;5058976;28;20236;-73
2022/06/01 05:56:45;;;;;;;17.23;13.90;;;10.20;99.90;;;;;;5057741;28;20668;-73
2022/06/01 05:59:11;;;;;;;17.83;13.57;;;10.20;99.90;;;;;;5058932;28;20254;-73
2022/06/01 06:01:37;;;;;;;17.00;13.90;;;10.30;99.90;;;;;;5058929;28;20214;-73
2022/06/01 06:04:03;;;;;;;17.07;12.70;;;10.30;99.90;;;;;;5058876;28;20731;-73
2022/06/01 06:06:29;;;;;;;19.63;12.43;;;10.40;99.90;;;;;;5055478;28;20217;-73
2022/06/01 06:09:03;;;;;;;19.07;11.77;;;10.40;99.90;;;;;;5054418;28;20266;-73
2022/06/01 06:11:31;;;;;;;15.63;12.00;;;10.50;99.90;;;;;;5055922;28;20191;-73
2022/06/01 06:13:58;;;;;;;17.17;13.23;;;10.50;99.90;;;;;;5054241;28;20202;-73
2022/06/01 06:16:25;;;;;;;19.47;12.47;;;10.60;99.90;;;;;;5055832;28;20172;-73
2022/06/01 06:18:51;;;;;;;15.73;11.47;;;10.60;99.90;;;;;;5055526;28;20226;-73
2022/06/01 06:21:17;;;;;;;15.57;12.10;;;10.70;99.90;;;;;;5055487;28;20175;-73
2022/06/01 06:23:43;;;;;;;13.87;11.93;;;10.70;99.90;;;;;;5055393;28;20207;-71
2022/06/01 06:26:08;;;;;;;14.30;11.27;;;10.80;99.90;;;;;;5055457;28;20172;-73
2022/06/01 06:28:34;;;;;;;19.13;11.87;;;10.80;99.90;;;;;;5055342;28;20199;-73
2022/06/01 06:31:00;;;;;;;14.67;10.63;;;10.80;99.90;;;;;;5055166;28;20282;-74
2022/06/01 06:33:26;;;;;;;15.60;11.30;;;10.90;99.90;;;;;;5053918;28;20612;-74
2022/06/01 06:36:01;;;;;;;18.80;11.63;;;11.00;99.90;;;;;;5055176;28;20244;-73
2022/06/01 06:38:29;;;;;;;13.27;11.50;;;11.00;99.90;;;;;;5055469;28;20612;-73
2022/06/01 06:40:57;;;;;;;16.67;11.10;;;11.10;99.90;;;;;;5055327;28;20645;-73
2022/06/01 06:43:24;;;;;;;15.10;11.43;;;11.20;99.90;;;;;;5055445;28;20222;-72
2022/06/01 06:45:58;;;;;;;15.87;9.97;;;11.30;99.90;;;;;;5055292;28;20651;-73
2022/06/01 06:48:23;;;;;;;14.30;9.87;;;11.40;99.90;;;;;;5055248;28;20498;-74
2022/06/01 06:50:49;;;;;;;14.87;9.33;;;11.30;99.90;;;;;;5054895;28;20221;-72
2022/06/01 06:53:16;;;;;;;10.43;9.30;;;11.40;99.90;;;;;;5054974;28;20184;-73
2022/06/01 06:55:41;;;;;;;12.33;10.23;;;11.50;99.90;;;;;;5054874;28;20209;-73
2022/06/01 06:58:09;;;;;;;12.03;9.13;;;11.60;99.90;;;;;;5053531;28;20168;-73
2022/06/01 07:00:35;;;;;;;12.93;8.73;;;11.60;99.90;;;;;;5054763;28;20175;-73
2022/06/01 07:03:01;;;;;;;11.77;8.77;;;11.60;99.90;;;;;;5053405;28;20199;-73
2022/06/01 07:08:10;;;;;;;13.47;8.97;;;11.70;99.90;;;;;;5054884;28;20255;-73
2022/06/01 07:10:36;;;;;;;12.93;7.87;;;11.80;99.90;;;;;;5054660;28;20282;-73
2022/06/01 07:13:01;;;;;;;11.53;8.30;;;11.90;99.90;;;;;;5054738;28;20222;-73
2022/06/01 07:15:27;;;;;;;11.67;7.53;;;12.00;99.90;;;;;;5054614;28;20172;-73
2022/06/01 07:17:52;;;;;;;9.77;7.07;;;12.10;99.90;;;;;;5052965;28;20267;-73
2022/06/01 07:20:18;;;;;;;12.43;7.57;;;12.20;99.90;;;;;;5054378;28;20545;-73
2022/06/01 07:22:44;;;;;;;9.27;6.17;;;12.30;99.90;;;;;;5054155;28;20203;-72
2022/06/01 07:25:10;;;;;;;9.53;6.53;;;12.40;99.90;;;;;;5053008;28;20259;-73
2022/06/01 07:27:36;;;;;;;10.47;6.20;;;12.50;99.90;;;;;;5052949;28;20270;-73
2022/06/01 07:30:04;;;;;;;10.33;5.70;;;12.60;99.90;;;;;;5054073;28;20190;-73
2022/06/01 07:32:29;;;;;;;6.97;5.57;;;12.70;99.90;;;;;;5054007;28;20192;-73
2022/06/01 07:34:55;;;;;;;9.87;6.03;;;12.70;99.90;;;;;;5054336;28;20167;-73
2022/06/01 07:43:08;;;;;;;6.47;5.13;;;12.90;99.90;;;;;;5054365;28;20198;-73
2022/06/01 07:45:39;;;;;;;5.70;5.00;;;12.90;99.90;;;;;;5053947;28;20156;-73
2022/06/01 07:48:06;;;;;;;5.83;4.00;;;13.00;99.90;;;;;;5054183;28;20156;-73
2022/06/01 07:50:32;;;;;;;5.70;3.77;;;13.00;99.90;;;;;;5053652;28;20199;-73
2022/06/01 07:52:58;;;;;;;4.57;3.00;;;13.20;99.90;;;;;;5053770;28;20199;-73
2022/06/01 07:55:24;;;;;;;5.73;4.80;;;13.30;99.90;;;;;;5053749;28;20167;-72
2022/06/01 07:57:50;;;;;;;7.57;4.50;;;13.30;99.90;;;;;;5052601;28;20175;-73
2022/06/01 08:00:16;;;;;;;8.07;4.27;;;13.40;99.90;;;;;;5053655;28;20168;-73
2022/06/01 08:02:42;;;;;;;8.07;4.13;;;13.50;99.90;;;;;;5053620;28;20200;-73
2022/06/01 08:05:09;;;;;;;5.77;3.93;;;13.60;99.90;;;;;;5052343;28;20187;-73
2022/06/01 08:07:35;;;;;;;6.90;4.00;;;13.70;99.90;;;;;;5053847;28;20206;-73
2022/06/01 08:10:02;;;;;;;6.43;4.20;;;13.80;99.90;;;;;;5053717;28;20175;-74
2022/06/01 08:15:12;;;;;;;5.97;3.83;;;13.90;99.90;;;;;;5053986;28;20163;-73
2022/06/01 08:17:38;;;;;;;4.80;3.77;;;14.00;99.90;;;;;;5053698;28;20689;-73
2022/06/01 08:20:04;;;;;;;5.37;3.50;;;14.10;99.90;;;;;;5053333;28;20172;-73
2022/06/01 08:22:30;;;;;;;5.93;3.50;;;14.20;99.90;;;;;;5051842;28;20239;-73
2022/06/01 08:24:55;;;;;;;6.87;3.60;;;14.30;99.90;;;;;;5053541;28;20214;-74
2022/06/01 08:27:21;;;;;;;4.57;3.30;;;14.20;99.90;;;;;;5051854;28;20182;-73
2022/06/01 08:29:47;;;;;;;4.30;3.00;;;14.30;99.90;;;;;;5053178;28;20262;-73
2022/06/01 08:32:12;;;;;;;4.27;3.40;;;14.30;99.90;;;;;;5052956;28;20198;-73
2022/06/01 08:34:38;;;;;;;5.63;2.60;;;14.40;99.90;;;;;;5053051;28;20167;-73
2022/06/01 08:37:04;;;;;;;5.90;2.77;;;14.50;99.90;;;;;;5053085;28;20172;-73
2022/06/01 08:39:30;;;;;;;7.43;3.53;;;14.60;1.00;;;;;;5053631;28;20198;-72
2022/06/01 08:41:58;;;;;;;4.43;2.80;;;14.50;1.00;;;;;;5052989;28;20591;-73
2022/06/01 08:44:32;;;;;;;5.57;2.57;;;14.60;99.90;;;;;;5053231;28;20191;-73
2022/06/01 08:47:09;;;;;;;4.57;3.17;;;14.60;10.10;;;;;;5053214;28;20640;-73
2022/06/01 08:49:37;;;;;;;5.17;3.00;;;14.60;99.90;;;;;;5053210;28;20158;-73
2022/06/01 08:52:04;;;;;;;3.60;2.93;;;14.50;99.90;;;;;;5052787;28;20192;-73
2022/06/01 08:54:30;;;;;;;3.93;2.73;;;14.60;1.00;;;;;;5052778;28;20171;-74
2022/06/01 08:57:11;;;;;;;4.40;3.07;;;14.70;46.40;;;;;;5052983;28;20175;-74
2022/06/01 09:00:01;;;;;;;4.93;3.27;;;14.60;99.90;;;;;;5053121;28;20167;-73
2022/06/01 09:02:49;;;;;;;4.83;2.90;;;14.60;99.90;;;;;;5052984;28;20241;-74
2022/06/01 09:05:37;;;;;;;4.07;2.80;;;14.60;1.00;;;;;;5051573;28;20164;-72
2022/06/01 09:08:33;;;;;;;3.23;2.50;;;14.80;16.10;;;;;;5053026;28;20158;-73
2022/06/01 09:11:11;;;;;;;3.77;2.60;;;14.90;99.90;;;;;;5052685;28;20191;-73
2022/06/01 09:13:56;;;;;;;4.53;2.07;;;14.90;99.90;;;;;;5052634;28;20195;-72
2022/06/01 09:16:28;;;;;;;3.10;2.77;;;15.00;11.90;;;;;;5051467;28;20164;-73
2022/06/01 09:18:55;;;;;;;5.00;2.30;;;15.10;99.90;;;;;;5052831;28;20221;-73
2022/06/01 09:24:34;;;;;;;4.47;2.40;;;15.30;1.00;;;;;;5033172;28;20258;-73
2022/06/01 09:27:06;;;;;;;4.40;2.20;;;15.30;99.90;;;;;;5052661;28;20156;-73
2022/06/01 09:29:50;;;;;;;2.67;1.90;;;15.40;99.90;;;;;;5053091;28;20176;-73
2022/06/01 09:32:34;;;;;;;3.53;1.60;;;15.50;1.00;;;;;;5052432;28;20199;-74
2022/06/01 09:35:03;;;;;;;4.17;2.33;;;15.70;99.90;;;;;;5051258;28;20587;-74
2022/06/01 09:37:33;;;;;;;1.93;1.83;;;15.70;1.00;;;;;;5052714;28;20180;-74
2022/06/01 09:40:04;;;;;;;6.07;1.97;;;15.70;99.90;;;;;;5052042;28;20175;-74
2022/06/01 09:42:39;;;;;;;2.90;1.60;;;15.80;1.00;;;;;;5054127;28;20245;-73
2022/06/01 09:45:23;;;;;;;3.43;2.10;;;15.90;1.00;;;;;;5054957;28;20182;-73
2022/06/01 09:47:50;;;;;;;5.53;1.80;;;15.80;99.90;;;;;;5056451;28;20644;-73
2022/06/01 09:50:29;;;;;;;4.27;1.87;;;15.80;1.00;;;;;;5054752;28;20175;-74
2022/06/01 09:53:19;;;;;;;4.03;2.00;;;15.80;99.90;;;;;;5054780;28;20199;-74
2022/06/01 09:55:54;;;;;;;3.53;2.00;;;15.80;99.90;;;;;;5056056;28;20160;-74
2022/06/01 10:06:57;;;;;;;2.20;1.67;;;16.00;1.00;;;;;;5056457;28;20166;-73
2022/06/01 10:09:32;;;;;;;3.13;1.60;;;16.10;99.90;;;;;;5055829;28;20171;-73
2022/06/01 10:11:58;;;;;;;3.93;1.80;;;16.20;1.00;;;;;;5055718;28;20195;-73
2022/06/01 10:14:35;;;;;;;1.77;1.63;;;16.40;99.90;;;;;;5055590;28;20195;-73
2022/06/01 10:17:27;;;;;;;3.10;1.70;;;16.50;1.00;;;;;;5054496;28;20242;-73
2022/06/01 10:20:04;;;;;;;2.57;1.70;;;16.60;99.90;;;;;;5055901;28;20543;-73
2022/06/01 10:22:38;;;;;;;3.10;1.50;;;16.70;99.90;;;;;;5054160;28;20287;-74
2022/06/01 10:25:08;;;;;;;2.83;1.40;;;16.90;1.00;;;;;;5054348;28;20241;-73
2022/06/01 10:28:00;;;;;;;6.30;1.80;;;17.00;99.90;;;;;;5054264;28;20544;-74
2022/06/01 10:30:30;;;;;;;5.23;1.80;;;17.10;99.90;;;;;;5052882;28;20207;-73
2022/06/01 10:33:05;;;;;;;3.90;1.90;;;17.10;99.90;;;;;;5055933;28;20188;-74
2022/06/01 10:35:44;;;;;;;4.27;1.73;;;17.10;99.90;;;;;;5055582;28;20162;-73
2022/06/01 10:38:31;;;;;;;3.90;2.00;;;17.10;99.90;;;;;;5055504;28;20187;-74
2022/06/01 10:41:28;;;;;;;5.93;2.10;;;17.00;1.00;;;;;;5055251;28;20170;-74
2022/06/01 10:43:54;;;;;;;2.23;1.50;;;16.90;99.90;;;;;;5055257;28;20276;-74
2022/06/01 10:46:22;;;;;;;2.10;1.13;;;16.80;99.90;;;;;;5055123;28;20168;-74
2022/06/01 10:49:15;;;;;;;3.27;1.87;;;16.80;50.60;;;;;;5055291;28;20175;-75
2022/06/01 10:51:41;;;;;;;4.30;1.57;;;16.70;1.00;;;;;;5055250;28;20195;-74
2022/06/01 10:54:32;;;;;;;3.50;1.83;;;16.50;99.90;;;;;;5053149;28;20191;-74
2022/06/01 10:56:57;;;;;;;7.10;1.30;;;16.40;1.00;;;;;;5055023;28;20168;-74
2022/06/01 10:59:25;;;;;;;3.83;1.80;;;16.30;99.90;;;;;;5055430;28;20252;-74
2022/06/01 11:02:27;;;;;;;5.37;1.97;;;16.20;99.90;;;;;;5055113;28;20180;-74
2022/06/01 11:05:15;;;;;;;2.67;1.63;;;16.00;99.90;;;;;;5053558;28;20164;-74
2022/06/01 11:08:09;;;;;;;6.30;1.90;;;15.80;79.60;;;;;;5053430;28;20175;-74
2022/06/01 11:10:54;;;;;;;2.40;1.93;;;15.60;1.00;;;;;;5054806;28;20184;-74
2022/06/01 11:13:45;;;;;;;4.50;1.87;;;15.40;99.90;;;;;;5054542;28;20219;-74
2022/06/01 11:16:21;;;;;;;3.97;1.97;;;15.30;99.90;;;;;;5054834;28;20614;-74
2022/06/01 11:19:16;;;;;;;4.23;2.20;;;15.30;99.90;;;;;;5054744;28;20162;-74
2022/06/01 11:22:12;;;;;;;4.50;2.23;;;15.20;1.00;;;;;;5051185;28;20190;-74
2022/06/01 11:25:05;;;;;;;4.97;2.10;;;15.10;1.00;;;;;;5080169;22;20223;-74
2022/06/01 11:27:56;;;;;;;4.47;2.30;;;15.10;99.90;;;;;;5036338;28;20267;-74
2022/06/01 11:30:26;;;;;;;3.43;2.20;;;15.10;99.90;;;;;;5036273;28;20210;-74
2022/06/01 11:33:15;;;;;;;6.17;2.33;;;15.10;99.90;;;;;;5054562;28;20530;-74
2022/06/01 11:35:57;;;;;;;4.77;2.40;;;15.20;99.90;;;;;;5054289;28;20156;-74
2022/06/01 11:38:35;;;;;;;3.50;2.20;;;15.10;1.00;;;;;;5036209;28;20275;-74
2022/06/01 11:41:00;;;;;;;6.83;2.47;;;15.10;99.90;;;;;;5054252;28;20163;-74
2022/06/01 11:43:34;;;;;;;3.63;2.17;;;15.20;1.00;;;;;;5053980;28;20240;-74
2022/06/01 11:46:07;;;;;;;2.87;2.10;;;15.30;1.00;;;;;;5053911;28;20240;-74
2022/06/01 11:48:37;;;;;;;2.60;2.00;;;15.50;99.90;;;;;;5053798;28;20230;-74
2022/06/01 11:51:21;;;;;;;3.77;1.97;;;15.70;1.00;;;;;;5035813;28;20257;-74
2022/06/01 11:54:08;;;;;;;5.33;2.43;;;15.90;20.60;;;;;;5054014;28;20191;-74
2022/06/01 11:56:44;;;;;;;6.53;2.17;;;16.20;1.00;;;;;;5053853;28;20153;-73
2022/06/01 11:59:13;;;;;;;2.33;1.93;;;16.40;99.90;;;;;;5053068;28;20160;-74
2022/06/01 12:01:43;;;;;;;3.83;2.10;;;16.50;8.10;;;;;;5053612;28;20178;-73
2022/06/01 12:04:32;;;;;;;2.80;2.00;;;16.60;1.00;;;;;;5053156;28;20610;-72
2022/06/01 12:07:32;;;;;;;6.10;1.97;;;16.70;1.00;;;;;;5053149;28;20175;-74
2022/06/01 12:10:00;;;;;;;3.63;1.73;;;16.60;1.00;;;;;;5053333;28;20167;-74
2022/06/01 12:12:42;;;;;;;2.67;1.50;;;16.60;99.90;;;;;;5053284;28;20211;-73
2022/06/01 12:15:16;;;;;;;4.23;1.73;;;16.50;99.90;;;;;;5053973;28;20148;-73
2022/06/01 12:18:11;;;;;;;5.07;1.80;;;16.50;99.90;;;;;;5053599;28;20293;-73
2022/06/01 12:20:37;;;;;;;4.77;2.70;;;16.30;1.00;;;;;;5018375;28;20183;-73
2022/06/01 12:28:58;;;;;;;4.50;2.03;;;16.00;99.90;;;;;;5053112;28;20539;-74
2022/06/01 12:31:33;;;;;;;2.70;1.50;;;15.70;1.00;;;;;;5035268;28;20202;-73
2022/06/01 12:34:18;;;;;;;1.70;1.60;;;15.60;1.00;;;;;;5035180;28;20191;-73
2022/06/01 12:36:54;;;;;;;1.63;1.50;;;15.20;99.90;;;;;;5053301;28;20159;-73
2022/06/01 12:39:32;;;;;;;1.63;1.23;;;15.00;1.00;;;;;;5053030;28;20574;-73
2022/06/01 12:42:14;;;;;;;4.43;1.70;;;15.00;1.00;;;;;;5052842;28;20182;-73
2022/06/01 12:44:43;;;;;;;3.10;1.80;;;14.90;99.90;;;;;;5035031;28;20305;-73
2022/06/01 12:47:22;;;;;;;2.27;1.50;;;14.90;1.00;;;;;;5052866;28;20179;-73
2022/06/01 12:49:48;;;;;;;2.97;1.70;;;14.80;1.00;;;;;;5034943;28;20167;-74
2022/06/01 12:52:20;;;;;;;3.80;1.67;;;14.80;1.00;;;;;;5052830;28;20195;-74
2022/06/01 12:55:01;;;;;;;1.97;1.60;;;14.60;1.00;;;;;;5052808;28;20211;-72
2022/06/01 12:57:33;;;;;;;1.80;1.70;;;14.50;26.60;;;;;;5052722;28;20167;-73
2022/06/01 13:00:13;;;;;;;2.00;1.70;;;14.40;1.00;;;;;;5034950;28;20168;-73
2022/06/01 13:02:40;;;;;;;2.10;1.50;;;14.50;1.00;;;;;;5052768;28;20163;-74
2022/06/01 13:05:09;;;;;;;1.90;1.70;;;14.60;99.90;;;;;;5052733;28;20714;-73
2022/06/01 13:07:39;;;;;;;5.20;1.90;;;14.60;99.90;;;;;;5052765;28;20183;-73
2022/06/01 13:10:21;;;;;;;3.83;1.70;;;14.50;99.90;;;;;;5034857;28;20179;-73
2022/06/01 13:12:47;;;;;;;2.07;1.70;;;14.40;99.90;;;;;;5052698;28;20156;-73
2022/06/01 13:15:17;;;;;;;1.57;1.47;;;14.40;99.90;;;;;;5052694;28;20176;-73
2022/06/01 13:17:55;;;;;;;2.63;1.60;;;14.30;79.80;;;;;;5056641;28;20179;-73
2022/06/01 13:20:35;;;;;;;2.13;1.57;;;14.10;1.00;;;;;;5057063;28;20152;-73
2022/06/01 13:23:04;;;;;;;3.33;2.10;;;14.00;99.90;;;;;;5038610;28;20690;-73
2022/06/01 13:25:35;;;;;;;1.60;1.50;;;13.90;1.00;;;;;;5056688;28;20163;-72
2022/06/01 13:28:01;;;;;;;3.83;1.60;;;13.90;1.00;;;;;;5038605;28;20176;-73
2022/06/01 13:30:31;;;;;;;1.70;1.60;;;13.90;99.90;;;;;;5056990;28;20540;-73
2022/06/01 13:32:57;;;;;;;1.97;1.77;;;13.90;1.00;;;;;;5056883;28;20200;-74
2022/06/01 13:35:35;;;;;;;3.50;2.40;;;14.00;1.00;;;;;;5056611;28;20171;-74
2022/06/01 13:38:03;;;;;;;2.53;2.33;;;13.90;99.90;;;;;;5038442;28;20193;-73
2022/06/01 13:40:35;;;;;;;6.47;3.40;;;14.00;99.90;;;;;;5038499;28;20187;-73